Terminal Aerodrome Forecast
Issued by NWS

Home | Current Version | Previous Version | Text Only | Print | Product List | Glossary On
Versions: 1 2 3 4 5 6 7 8 9 10 11 12 13 14 15 16
000
FTUS43 KPAH 251728 AAB
TAFCGI
TAF AMD
KCGI 251728Z 2517/2618 21004KT P6SM FEW050 SCT100
     FM260000 VRB03KT P6SM SCT070
     FM260500 35008KT P6SM VCSH SCT035 BKN060
     FM261600 36006KT P6SM FEW040=

USA.gov is the U.S. government's official web portal to all federal, state and local government web resources and services.